createdAt,value
2019-02-28T00:03:29.729Z,39.4
2019-02-28T00:08:34.298Z,39.4
2019-02-28T00:13:45.251Z,39.4
2019-02-28T00:18:50.613Z,39.3
2019-02-28T00:24:07.124Z,39.3
2019-02-28T00:34:16.871Z,39.2
2019-02-28T00:39:26.017Z,39.2
2019-02-28T00:44:31.366Z,39.2
2019-02-28T00:55:05.329Z,39.1
2019-02-28T01:00:08.362Z,39.1
2019-02-28T01:06:46.318Z,39
2019-02-28T01:11:47.930Z,38.9
2019-02-28T01:16:53.683Z,38.9
2019-02-28T01:27:01.503Z,38.9
2019-02-28T01:37:13.633Z,38.7
2019-02-28T01:47:28.614Z,38.7
2019-02-28T01:52:45.637Z,38.7
2019-02-28T01:57:55.635Z,38.6
2019-02-28T02:03:02.861Z,38.6
2019-02-28T02:08:10.288Z,38.6
2019-02-28T02:13:16.781Z,38.5
2019-02-28T02:18:24.797Z,38.5
2019-02-28T02:34:24.240Z,38.4
2019-02-28T02:39:31.927Z,38.4
2019-02-28T02:49:56.457Z,38.3
2019-02-28T02:55:07.101Z,38.2
2019-02-28T03:00:13.656Z,38.2
2019-02-28T03:20:41.094Z,38.1
2019-02-28T03:25:47.055Z,38.1
2019-02-28T03:31:11.473Z,38
2019-02-28T03:36:18.905Z,37.9
2019-02-28T03:41:25.203Z,37.9
2019-02-28T03:46:54.182Z,37.9
2019-02-28T03:52:15.512Z,37.9
2019-02-28T03:57:24.211Z,37.8
2019-02-28T04:02:37.099Z,37.7
2019-02-28T04:07:39.282Z,37.7
2019-02-28T04:17:51.463Z,37.7
2019-02-28T04:22:59.782Z,37.6
2019-02-28T04:28:02.720Z,37.6
2019-02-28T04:33:17.081Z,37.6
2019-02-28T04:43:33.474Z,37.5
2019-02-28T04:48:40.311Z,37.5
2019-02-28T04:53:44.725Z,37.4
2019-02-28T04:59:41.802Z,37.4
2019-02-28T05:04:55.698Z,37.4
2019-02-28T05:10:03.944Z,37.4
2019-02-28T05:16:38.912Z,37.3
2019-02-28T05:21:25.755Z,37.2
2019-02-28T05:31:37.032Z,37.2
2019-02-28T05:36:38.793Z,37.2
2019-02-28T05:41:41.350Z,37.1
2019-02-28T05:52:11.825Z,37.1
2019-02-28T05:57:56.918Z,37.1
2019-02-28T06:03:07.413Z,37
2019-02-28T06:08:17.653Z,37
2019-02-28T06:13:24.970Z,36.9
2019-02-28T06:23:36.090Z,36.9
2019-02-28T06:28:42.074Z,36.8
2019-02-28T06:38:51.437Z,36.7
2019-02-28T06:44:04.952Z,36.7
2019-02-28T06:49:09.468Z,36.7
2019-02-28T07:00:50.363Z,36.6
2019-02-28T07:05:52.047Z,36.6
2019-02-28T07:10:54.274Z,36.6
2019-02-28T07:15:58.924Z,36.6
2019-02-28T07:21:04.272Z,36.5
2019-02-28T07:26:09.331Z,36.5
2019-02-28T07:31:10.859Z,36.4
2019-02-28T07:36:33.676Z,36.4
2019-02-28T07:41:38.228Z,36.4
2019-02-28T07:46:45.755Z,36.4
2019-02-28T07:52:13.870Z,36.3
2019-02-28T08:07:27.724Z,36.2
2019-02-28T08:12:30.696Z,36.2
2019-02-28T08:17:35.354Z,36.2
2019-02-28T08:22:38.622Z,36.1
2019-02-28T08:27:42.634Z,36.1
2019-02-28T08:38:02.689Z,36.1
2019-02-28T08:43:10.460Z,36
2019-02-28T08:48:20.760Z,36
2019-02-28T08:53:22.718Z,35.9
2019-02-28T08:58:25.809Z,35.9
2019-02-28T09:03:28.077Z,35.9
2019-02-28T09:08:34.173Z,35.9
2019-02-28T09:13:54.560Z,35.8
2019-02-28T09:19:10.631Z,35.8
2019-02-28T09:24:15.189Z,35.7
2019-02-28T09:29:24.248Z,35.7
2019-02-28T09:34:36.032Z,35.7
2019-02-28T09:39:38.731Z,35.7
2019-02-28T09:45:27.301Z,35.7
2019-02-28T09:50:33.360Z,35.6
2019-02-28T10:00:43.205Z,35.6
2019-02-28T10:05:53.737Z,35.6
2019-02-28T10:11:00.074Z,35.5
2019-02-28T10:16:05.182Z,35.5
2019-02-28T10:21:17.201Z,35.4
2019-02-28T10:31:36.392Z,35.4
2019-02-28T10:36:44.359Z,35.4
2019-02-28T10:42:04.985Z,35.4
2019-02-28T10:47:14.085Z,35.3
2019-02-28T10:53:10.610Z,35.3
2019-02-28T11:03:32.155Z,35.2
2019-02-28T11:08:37.928Z,35.2
2019-02-28T11:13:50.521Z,35.2
2019-02-28T11:18:57.732Z,35.1
2019-02-28T11:34:15.920Z,35.1
2019-02-28T11:39:27.515Z,35.1
2019-02-28T11:44:58.382Z,35
2019-02-28T11:50:07.832Z,35
2019-02-28T11:55:10.286Z,35
2019-02-28T12:00:14.472Z,34.9
2019-02-28T12:05:22.805Z,34.9
2019-02-28T12:10:48.989Z,34.9
2019-02-28T12:15:55.872Z,34.9
2019-02-28T12:20:58.551Z,34.8
2019-02-28T12:26:07.593Z,34.8
2019-02-28T12:31:08.996Z,34.8
2019-02-28T12:41:17.675Z,34.7
2019-02-28T12:46:20.814Z,34.7
2019-02-28T12:51:25.088Z,34.7
2019-02-28T12:56:27.005Z,34.6
2019-02-28T13:01:28.565Z,34.6
2019-02-28T13:11:49.226Z,34.6
2019-02-28T13:17:54.158Z,34.6
2019-02-28T14:31:29.431Z,34.2
2019-02-28T14:36:31.142Z,34.2
2019-02-28T14:41:43.196Z,34.1
2019-02-28T14:46:49.745Z,34.1
2019-02-28T14:52:08.533Z,34.1
2019-02-28T14:57:13.321Z,34.1
2019-02-28T15:02:27.742Z,34.1
2019-02-28T15:12:36.745Z,34
2019-02-28T15:17:41.999Z,34
2019-02-28T15:22:46.913Z,33.9
2019-02-28T15:27:51.336Z,33.9
2019-02-28T15:32:56.819Z,33.9
2019-02-28T15:37:58.791Z,33.9
2019-02-28T15:43:03.100Z,33.9
2019-02-28T15:48:15.262Z,33.8
2019-02-28T15:54:04.213Z,33.8
2019-02-28T15:59:05.938Z,33.8
2019-02-28T16:04:13.502Z,33.9
2019-02-28T16:09:14.753Z,36.8
2019-02-28T16:14:16.322Z,38.3
2019-02-28T16:19:18.780Z,39.6
2019-02-28T16:24:20.825Z,40.6
2019-02-28T16:34:28.795Z,42.4
2019-02-28T16:39:33.046Z,43.1
2019-02-28T16:44:38.496Z,43.7
2019-02-28T16:50:06.545Z,44.1
2019-02-28T16:55:16.485Z,44.7
2019-02-28T17:00:24.175Z,45.1
2019-02-28T17:05:34.948Z,45.5
2019-02-28T17:10:39.983Z,45.8
2019-02-28T17:15:50.373Z,46.1
2019-02-28T17:21:08.756Z,46.2
2019-02-28T17:26:13.483Z,46.2
2019-02-28T17:36:25.433Z,46.5
2019-02-28T17:41:37.108Z,46.5
2019-02-28T17:46:40.373Z,46.7
2019-02-28T17:52:00.477Z,46.6
2019-02-28T17:57:03.999Z,46.6
2019-02-28T18:07:14.741Z,46.7
2019-02-28T18:12:23.411Z,46.7
2019-02-28T18:17:25.944Z,46.7
2019-02-28T18:22:31.601Z,46.7
2019-02-28T18:27:39.450Z,46.7
2019-02-28T18:32:44.407Z,46.8
2019-02-28T18:37:47.734Z,46.8
2019-02-28T18:42:53.228Z,46.7
2019-02-28T18:48:02.208Z,46.7
2019-02-28T18:53:07.049Z,46.7
2019-02-28T18:58:12.906Z,46.7
2019-02-28T19:08:21.208Z,46.8
2019-02-28T19:18:34.394Z,46.7
2019-02-28T19:23:36.173Z,46.7
2019-02-28T19:28:39.152Z,46.6
2019-02-28T19:36:53.328Z,46.7
2019-02-28T19:41:55.125Z,47.2
2019-02-28T19:47:01.002Z,47.2
2019-02-28T19:52:08.168Z,47.2
2019-02-28T19:57:39.073Z,47.1
2019-02-28T20:08:47.129Z,47
2019-02-28T20:13:55.206Z,47
2019-02-28T20:19:08.251Z,46.9
2019-02-28T20:24:19.287Z,46.9
2019-02-28T20:29:33.349Z,46.9
2019-02-28T20:39:53.320Z,46.7
2019-02-28T20:44:56.112Z,46.7
2019-02-28T20:50:01.353Z,46.6
2019-02-28T20:55:21.331Z,45.8
2019-02-28T21:00:36.584Z,45.6
2019-02-28T21:05:50.127Z,45.5
2019-02-28T21:11:01.191Z,45.5
2019-02-28T21:16:05.821Z,45.4
2019-02-28T21:21:12.631Z,45.3
2019-02-28T21:26:38.325Z,45.2
2019-02-28T21:31:44.546Z,45.2
2019-02-28T21:38:20.762Z,45.1
2019-02-28T21:43:32.818Z,45.1
2019-02-28T21:48:34.572Z,45
2019-02-28T21:53:46.341Z,44.9
2019-02-28T22:01:56.702Z,44.8
2019-02-28T22:07:07.768Z,44.7
2019-02-28T22:12:19.417Z,44.7
2019-02-28T22:29:15.829Z,44.4
2019-02-28T22:34:26.093Z,44.4
2019-02-28T22:39:28.950Z,44.3
2019-02-28T22:45:14.507Z,44.2
2019-02-28T22:50:23.244Z,44.1
2019-02-28T22:55:27.119Z,44.1
2019-02-28T23:00:34.499Z,44
2019-02-28T23:05:55.065Z,43.9
2019-02-28T23:26:42.731Z,43.7
2019-02-28T23:31:45.268Z,43.6
2019-02-28T23:36:50.257Z,43.5
2019-02-28T23:47:00.835Z,43.4
2019-02-28T23:52:02.493Z,43.3
2019-02-28T23:57:07.045Z,43.3
